Time;durP1;ratioP1;P1;durP2;ratioP2;P2;SDS_P1;SDS_P2;PMS_P1;PMS_P2;Temp;Humidity;BMP_temperature;BMP_pressure;BME280_temperature;BME280_humidity;BME280_pressure;Samples;Min_cycle;Max_cycle;Signal;HPM_P1;HPM_P2
2022/10/03 00:00:12;;;;;;;35.28;5.78;;;12.00;99.90;;;;;;4994081;28;20018;-74
2022/10/03 00:03:26;;;;;;;43.55;6.35;;;12.00;99.90;;;;;;4993655;28;20031;-74
2022/10/03 00:06:22;;;;;;;42.17;5.78;;;12.00;99.90;;;;;;4979950;28;20137;-74
2022/10/03 00:08:58;;;;;;;31.45;5.90;;;11.90;99.90;;;;;;4992100;28;20049;-74
2022/10/03 00:11:56;;;;;;;16.42;5.15;;;11.90;99.90;;;;;;4976362;28;20088;-74
2022/10/03 00:14:48;;;;;;;11.13;4.88;;;11.90;99.90;;;;;;4971643;28;20113;-74
2022/10/03 00:17:14;;;;;;;;;;;11.90;99.90;;;;;;4976837;28;20027;-74
2022/10/03 00:20:04;;;;;;;6.70;3.83;;;11.80;99.90;;;;;;4991889;28;20024;-74
2022/10/03 00:22:33;;;;;;;9.88;3.72;;;11.80;99.90;;;;;;4976483;28;20026;-74
2022/10/03 00:25:23;;;;;;;8.60;3.42;;;11.80;99.90;;;;;;4992325;28;20039;-74
2022/10/03 00:27:55;;;;;;;11.32;3.17;;;11.80;99.90;;;;;;4975761;28;20130;-74
2022/10/03 00:30:24;;;;;;;18.92;4.00;;;11.80;99.90;;;;;;4992350;28;20032;-74
2022/10/03 00:33:06;;;;;;;5.88;3.67;;;11.70;99.90;;;;;;4975545;28;20038;-74
2022/10/03 00:35:50;;;;;;;14.45;3.75;;;11.60;99.90;;;;;;4975791;28;20046;-77
2022/10/03 00:38:51;;;;;;;19.23;3.80;;;11.70;99.90;;;;;;4976241;28;20030;-74
2022/10/03 00:41:52;;;;;;;10.73;3.80;;;11.70;99.90;;;;;;4976094;28;20430;-74
2022/10/03 00:44:43;;;;;;;7.40;3.80;;;11.60;99.90;;;;;;4985140;28;20034;-73
2022/10/03 00:47:42;;;;;;;10.27;3.10;;;11.60;99.90;;;;;;4976224;28;20046;-74
2022/10/03 00:50:28;;;;;;;6.85;3.20;;;11.70;99.90;;;;;;4992587;28;20051;-74
2022/10/03 00:53:06;;;;;;;7.70;2.90;;;11.70;99.90;;;;;;4974903;28;20030;-74
2022/10/03 00:55:33;;;;;;;3.95;2.47;;;11.70;99.90;;;;;;4976020;28;20058;-73
2022/10/03 00:58:24;;;;;;;16.45;3.50;;;11.70;99.90;;;;;;4975859;28;20479;-74
2022/10/03 01:00:54;;;;;;;4.18;2.90;;;11.70;99.90;;;;;;4975055;28;20026;-74
2022/10/03 01:03:28;;;;;;;3.65;2.58;;;11.70;99.90;;;;;;4975818;28;20061;-73
2022/10/03 01:05:54;;;;;;;4.25;3.15;;;11.70;99.90;;;;;;4975126;28;20494;-73
2022/10/03 01:08:45;;;;;;;5.07;3.10;;;11.80;99.90;;;;;;4993460;28;20026;-74
2022/10/03 01:11:20;;;;;;;5.15;3.13;;;11.80;99.90;;;;;;4993205;28;20022;-74
2022/10/03 01:14:04;;;;;;;4.60;2.97;;;11.80;99.90;;;;;;4992553;28;20423;-74
2022/10/03 01:16:58;;;;;;;3.50;2.28;;;11.80;99.90;;;;;;4975635;28;20034;-74
2022/10/03 01:19:44;;;;;;;6.15;2.85;;;11.90;99.90;;;;;;4975805;28;20037;-74
2022/10/03 01:22:28;;;;;;;3.80;2.22;;;11.90;99.90;;;;;;4993200;28;20022;-74
2022/10/03 01:25:10;;;;;;;4.95;2.88;;;11.90;99.90;;;;;;4992821;28;20031;-73
2022/10/03 01:30:46;;;;;;;3.92;2.60;;;11.90;99.90;;;;;;4992288;28;20034;-78
2022/10/03 01:33:27;;;;;;;3.92;2.30;;;12.00;99.90;;;;;;4975513;28;20537;-74
2022/10/03 01:36:33;;;;;;;5.88;2.83;;;12.00;99.90;;;;;;4975112;28;20208;-74
2022/10/03 01:39:31;;;;;;;3.40;2.35;;;12.10;99.90;;;;;;4955639;28;20034;-74
2022/10/03 01:42:32;;;;;;;3.80;2.40;;;12.10;99.90;;;;;;4974935;28;20113;-74
2022/10/03 01:45:29;;;;;;;5.55;2.80;;;12.10;99.90;;;;;;4992351;28;20076;-74
2022/10/03 01:48:08;;;;;;;4.15;2.63;;;12.10;99.90;;;;;;4989479;28;20048;-74
2022/10/03 01:50:45;;;;;;;3.88;2.70;;;12.10;99.90;;;;;;4975226;28;20081;-74
2022/10/03 01:53:24;;;;;;;5.85;3.10;;;12.10;99.90;;;;;;4975486;28;20580;-74
2022/10/03 01:56:14;;;;;;;4.25;2.60;;;12.20;99.90;;;;;;4974670;28;20034;-74
2022/10/03 01:59:12;;;;;;;4.10;2.80;;;12.10;99.90;;;;;;4974887;28;20030;-74
2022/10/03 02:01:50;;;;;;;5.28;2.45;;;12.00;99.90;;;;;;4991870;28;20033;-74
2022/10/03 02:04:43;;;;;;;4.88;2.45;;;12.10;99.90;;;;;;4975515;28;20161;-74
2022/10/03 02:07:53;;;;;;;4.22;2.63;;;12.00;99.90;;;;;;4978797;28;20066;-74
2022/10/03 02:10:38;;;;;;;5.32;2.55;;;12.00;99.90;;;;;;4995187;28;20030;-74
2022/10/03 02:13:18;;;;;;;6.72;2.65;;;12.00;99.90;;;;;;4996299;28;20054;-74
2022/10/03 02:15:53;;;;;;;4.78;2.90;;;12.00;99.90;;;;;;4978177;28;20056;-74
2022/10/03 02:18:45;;;;;;;6.88;2.80;;;12.00;99.90;;;;;;4978624;28;20038;-74
2022/10/03 02:21:21;;;;;;;6.22;2.83;;;11.90;99.90;;;;;;4978265;28;20117;-74
2022/10/03 02:23:48;;;;;;;6.40;2.85;;;11.90;99.90;;;;;;4994320;28;20108;-74
2022/10/03 02:26:47;;;;;;;7.78;3.25;;;11.90;99.90;;;;;;4978291;28;20070;-74
2022/10/03 02:29:31;;;;;;;4.82;2.60;;;11.80;99.90;;;;;;4995821;28;20030;-74
2022/10/03 02:32:38;;;;;;;4.30;2.60;;;11.90;99.90;;;;;;4995650;28;20057;-74
2022/10/03 02:35:31;;;;;;;4.80;2.95;;;11.90;99.90;;;;;;4995798;28;20121;-74
2022/10/03 02:38:34;;;;;;;5.57;2.58;;;11.90;99.90;;;;;;4977815;28;20039;-74
2022/10/03 02:41:12;;;;;;;4.40;2.50;;;11.90;99.90;;;;;;4977709;28;20073;-74
2022/10/03 02:43:57;;;;;;;4.30;2.70;;;12.00;99.90;;;;;;4995670;28;20030;-74
2022/10/03 02:47:01;;;;;;;3.45;2.63;;;11.90;99.90;;;;;;4978336;28;20084;-74
2022/10/03 02:49:51;;;;;;;4.05;2.67;;;12.00;99.90;;;;;;4962832;28;20377;-73
2022/10/03 02:52:51;;;;;;;4.82;3.00;;;12.00;99.90;;;;;;4977959;28;20034;-74
2022/10/03 02:55:38;;;;;;;3.75;2.75;;;12.00;99.90;;;;;;4978139;28;20391;-74
2022/10/03 02:58:12;;;;;;;3.60;2.80;;;12.00;99.90;;;;;;4994844;28;20042;-74
2022/10/03 03:00:54;;;;;;;5.47;2.85;;;12.00;99.90;;;;;;4977814;28;20108;-74
2022/10/03 03:03:57;;;;;;;4.45;2.45;;;12.00;99.90;;;;;;4994219;28;20030;-74
2022/10/03 03:06:46;;;;;;;2.92;2.35;;;12.00;99.90;;;;;;4979036;28;20038;-74
2022/10/03 03:09:49;;;;;;;5.32;2.65;;;12.10;99.90;;;;;;4995110;28;20026;-74
2022/10/03 03:12:56;;;;;;;6.68;2.33;;;12.10;99.90;;;;;;4995000;28;20018;-74
2022/10/03 03:15:46;;;;;;;3.80;2.33;;;12.10;99.90;;;;;;4937786;29;20062;-74
2022/10/03 03:18:47;;;;;;;5.63;2.65;;;12.10;99.90;;;;;;4953826;29;20031;-74
2022/10/03 03:21:50;;;;;;;5.47;2.90;;;12.20;99.90;;;;;;4903957;29;20197;-74
2022/10/03 03:24:59;;;;;;;6.07;2.78;;;12.20;99.90;;;;;;4937860;29;20030;-74
2022/10/03 03:27:57;;;;;;;5.35;2.75;;;12.10;99.90;;;;;;4953724;29;20086;-73
2022/10/03 03:30:28;;;;;;;5.03;2.83;;;12.10;99.90;;;;;;4953689;29;20034;-74
2022/10/03 03:33:00;;;;;;;4.38;2.47;;;12.10;99.90;;;;;;4937010;29;20039;-74
2022/10/03 03:36:09;;;;;;;4.60;2.30;;;12.10;99.90;;;;;;4953717;29;20043;-74
2022/10/03 03:38:51;;;;;;;9.63;2.65;;;12.10;99.90;;;;;;4953769;29;20465;-74
2022/10/03 03:41:33;;;;;;;4.90;2.85;;;12.20;99.90;;;;;;4953436;29;20027;-74
2022/10/03 03:44:29;;;;;;;5.63;2.70;;;12.10;99.90;;;;;;4952894;29;20094;-74
2022/10/03 03:47:19;;;;;;;4.18;2.78;;;12.20;99.90;;;;;;4985991;28;20047;-74
2022/10/03 03:50:05;;;;;;;7.90;2.30;;;12.10;99.90;;;;;;4972977;28;20101;-74
2022/10/03 03:53:09;;;;;;;4.43;2.33;;;12.20;99.90;;;;;;4973694;28;20034;-74
2022/10/03 03:56:02;;;;;;;6.53;2.45;;;12.20;99.90;;;;;;4973704;28;20054;-74
2022/10/03 03:58:55;;;;;;;4.20;2.17;;;12.10;99.90;;;;;;4974772;28;20093;-74
2022/10/03 04:01:47;;;;;;;3.22;2.20;;;12.20;99.90;;;;;;4973114;28;20031;-74
2022/10/03 04:04:31;;;;;;;;;;;12.20;99.90;;;;;;4975136;28;20031;-74
2022/10/03 04:07:02;;;;;;;6.10;2.42;;;12.20;99.90;;;;;;4989012;28;20429;-74
2022/10/03 04:10:05;;;;;;;6.35;2.90;;;12.10;99.90;;;;;;4973253;28;20068;-73
2022/10/03 04:13:12;;;;;;;5.15;2.38;;;12.10;99.90;;;;;;4973336;28;20031;-74
2022/10/03 04:16:13;;;;;;;3.75;2.40;;;12.20;99.90;;;;;;4973282;28;20047;-74
2022/10/03 04:19:25;;;;;;;4.75;2.60;;;12.20;99.90;;;;;;4973273;28;20023;-74
2022/10/03 04:22:16;;;;;;;4.35;2.42;;;12.20;99.90;;;;;;4914071;29;20032;-74
2022/10/03 04:25:00;;;;;;;5.10;2.70;;;12.20;99.90;;;;;;4914612;29;20042;-73
2022/10/03 04:27:56;;;;;;;7.65;2.75;;;12.20;99.90;;;;;;4958529;28;20133;-74
2022/10/03 04:30:58;;;;;;;4.43;2.28;;;12.20;99.90;;;;;;4973296;28;20031;-74
2022/10/03 04:33:52;;;;;;;6.43;2.60;;;12.20;99.90;;;;;;4974231;28;20035;-73
2022/10/03 04:36:44;;;;;;;4.78;3.00;;;12.20;99.90;;;;;;4972928;28;20081;-74
2022/10/03 04:39:44;;;;;;;4.05;2.58;;;12.20;99.90;;;;;;4973680;28;20042;-74
2022/10/03 04:42:15;;;;;;;5.35;3.17;;;12.20;99.90;;;;;;4972228;28;20038;-74
2022/10/03 04:45:00;;;;;;;5.80;3.35;;;12.30;99.90;;;;;;4972962;28;20027;-74
2022/10/03 04:47:32;;;;;;;6.20;2.95;;;12.30;99.90;;;;;;4972754;28;20129;-74
2022/10/03 04:50:12;;;;;;;7.20;3.10;;;12.30;99.90;;;;;;4981974;28;20054;-74
2022/10/03 04:53:10;;;;;;;5.75;2.50;;;12.20;99.90;;;;;;4993667;28;20113;-74
2022/10/03 04:55:55;;;;;;;3.53;2.47;;;12.20;99.90;;;;;;4976132;28;20034;-74
2022/10/03 04:58:42;;;;;;;11.07;3.22;;;12.20;99.90;;;;;;4975471;28;20030;-74
2022/10/03 05:01:20;;;;;;;6.30;3.00;;;12.10;99.90;;;;;;4975340;28;20243;-74
2022/10/03 05:04:05;;;;;;;4.53;2.55;;;12.10;99.90;;;;;;4992084;28;20035;-74
2022/10/03 05:06:36;;;;;;;6.70;3.10;;;12.10;99.90;;;;;;4992811;28;20070;-74
2022/10/03 05:09:31;;;;;;;4.30;2.50;;;12.10;99.90;;;;;;4975222;28;20026;-75
2022/10/03 05:12:21;;;;;;;3.90;2.38;;;12.00;99.90;;;;;;4992422;28;20498;-74
2022/10/03 05:15:17;;;;;;;8.75;2.80;;;12.00;99.90;;;;;;4975800;28;20031;-75
2022/10/03 05:18:01;;;;;;;4.38;3.20;;;11.90;99.90;;;;;;4975761;28;20034;-74
2022/10/03 05:21:04;;;;;;;5.03;3.60;;;11.90;99.90;;;;;;4975649;28;20029;-73
2022/10/03 05:23:38;;;;;;;;;;;11.90;99.90;;;;;;4976039;28;20030;-74
2022/10/03 05:26:42;;;;;;;5.85;3.25;;;11.90;99.90;;;;;;4991223;28;19913;-74
2022/10/03 05:29:26;;;;;;;7.30;3.30;;;11.90;99.90;;;;;;4991202;28;20023;-74
2022/10/03 05:32:24;;;;;;;6.22;3.00;;;11.80;99.90;;;;;;4974880;28;20121;-74
2022/10/03 05:35:03;;;;;;;5.50;3.30;;;11.80;99.90;;;;;;4974981;28;20062;-75
2022/10/03 05:37:46;;;;;;;5.80;3.33;;;11.70;99.90;;;;;;4993013;28;20080;-74
2022/10/03 05:40:30;;;;;;;7.32;3.10;;;11.60;99.90;;;;;;4993349;28;20118;-74
2022/10/03 05:43:58;;;;;;;6.00;3.17;;;11.60;99.90;;;;;;4994881;28;20531;-74
2022/10/03 05:46:44;;;;;;;5.18;2.85;;;11.50;99.90;;;;;;4877122;29;20479;-74
2022/10/03 05:49:28;;;;;;;5.88;2.40;;;11.50;99.90;;;;;;4988269;28;20200;-74
2022/10/03 05:52:20;;;;;;;3.88;2.30;;;11.30;99.90;;;;;;4995724;28;20027;-74
2022/10/03 05:55:02;;;;;;;5.80;2.30;;;11.30;99.90;;;;;;4978997;28;20027;-74
2022/10/03 05:57:40;;;;;;;3.80;2.22;;;11.30;99.90;;;;;;4996710;28;20026;-74
2022/10/03 06:00:27;;;;;;;2.90;1.77;;;11.30;99.90;;;;;;4978459;28;20036;-74
2022/10/03 06:03:19;;;;;;;3.35;2.30;;;11.30;99.90;;;;;;4994665;28;20395;-74
2022/10/03 06:06:07;;;;;;;3.20;1.90;;;11.40;99.90;;;;;;4978809;28;20088;-74
2022/10/03 06:09:18;;;;;;;5.40;2.58;;;11.40;99.90;;;;;;4978986;28;20041;-74
2022/10/03 06:12:02;;;;;;;3.63;2.25;;;11.40;99.90;;;;;;4968282;28;20121;-74
2022/10/03 06:14:34;;;;;;;6.88;2.55;;;11.40;99.90;;;;;;4978866;28;20026;-74
2022/10/03 06:17:24;;;;;;;3.60;2.20;;;11.50;99.90;;;;;;4995726;28;20042;-74
2022/10/03 06:20:26;;;;;;;6.15;2.50;;;11.50;99.90;;;;;;4978528;28;20041;-74
2022/10/03 06:23:11;;;;;;;5.43;2.55;;;11.50;99.90;;;;;;4978102;28;20501;-78
2022/10/03 06:25:36;;;;;;;4.68;2.90;;;11.50;99.90;;;;;;4978479;28;20038;-74
2022/10/03 06:28:08;;;;;;;7.75;3.08;;;11.60;99.90;;;;;;4995604;28;20089;-74
2022/10/03 06:30:58;;;;;;;9.15;3.50;;;11.60;99.90;;;;;;4978393;28;20167;-74
2022/10/03 06:33:55;;;;;;;12.05;3.15;;;11.60;99.90;;;;;;4978325;28;20045;-74
2022/10/03 06:36:58;;;;;;;20.80;4.95;;;11.60;99.90;;;;;;4995781;28;20022;-74
2022/10/03 06:39:57;;;;;;;17.27;5.30;;;11.50;99.90;;;;;;4978229;28;20472;-74
2022/10/03 06:42:35;;;;;;;8.27;4.60;;;11.50;99.90;;;;;;4992087;28;20023;-77
2022/10/03 06:45:29;;;;;;;8.73;4.60;;;11.50;99.90;;;;;;4978084;28;20022;-74
2022/10/03 06:48:32;;;;;;;8.52;4.40;;;11.40;99.90;;;;;;4942097;28;20563;-75
2022/10/03 06:51:30;;;;;;;8.38;4.13;;;11.40;99.90;;;;;;4989879;28;20047;-74
2022/10/03 06:54:29;;;;;;;7.20;3.88;;;11.50;99.90;;;;;;4975670;28;20019;-76
2022/10/03 06:57:30;;;;;;;8.15;3.88;;;11.50;99.90;;;;;;4951780;28;20034;-77
2022/10/03 07:00:16;;;;;;;5.10;2.90;;;11.50;99.90;;;;;;4947955;28;20499;-75
2022/10/03 07:03:06;;;;;;;4.40;2.50;;;11.50;99.90;;;;;;4975472;28;20097;-74
2022/10/03 07:06:06;;;;;;;6.00;2.70;;;11.50;99.90;;;;;;4990966;28;20034;-74
2022/10/03 07:08:58;;;;;;;7.13;2.80;;;11.60;99.90;;;;;;4991040;28;20081;-74
2022/10/03 07:11:55;;;;;;;5.63;3.28;;;11.70;99.90;;;;;;4975777;28;20026;-74
2022/10/03 07:14:37;;;;;;;7.07;3.40;;;11.70;99.90;;;;;;4990212;28;20074;-74
2022/10/03 07:17:21;;;;;;;3.80;2.53;;;11.70;99.90;;;;;;4973958;28;20027;-74
2022/10/03 07:20:04;;;;;;;5.70;2.97;;;11.80;99.90;;;;;;4975309;28;20416;-74
2022/10/03 07:23:05;;;;;;;4.38;3.05;;;11.90;99.90;;;;;;4990728;28;20086;-74
2022/10/03 07:25:53;;;;;;;6.72;2.88;;;11.90;99.90;;;;;;4974099;28;20034;-74
2022/10/03 07:29:00;;;;;;;4.97;3.25;;;11.90;99.90;;;;;;4973711;28;20027;-74
2022/10/03 07:32:14;;;;;;;6.18;3.65;;;12.00;99.90;;;;;;4989730;28;20065;-74
2022/10/03 07:35:11;;;;;;;3.90;2.63;;;12.00;99.90;;;;;;4899793;29;20032;-74
2022/10/03 07:41:01;;;;;;;5.05;2.88;;;12.20;99.90;;;;;;4975087;28;20046;-74
2022/10/03 07:43:45;;;;;;;7.47;3.28;;;12.20;99.90;;;;;;4975058;28;20105;-74
2022/10/03 07:46:38;;;;;;;3.80;2.60;;;12.30;99.90;;;;;;4974559;28;20041;-74
2022/10/03 07:49:03;;;;;;;5.00;3.03;;;12.30;99.90;;;;;;4974097;28;20126;-74
2022/10/03 07:51:59;;;;;;;5.70;2.95;;;12.30;99.90;;;;;;4976927;28;20041;-74
2022/10/03 07:54:48;;;;;;;3.78;2.92;;;12.30;99.90;;;;;;4976831;28;20547;-74
2022/10/03 07:57:23;;;;;;;4.22;2.80;;;12.30;99.90;;;;;;4992470;28;20041;-74
2022/10/03 07:59:52;;;;;;;4.80;2.63;;;12.20;99.90;;;;;;4994196;28;20033;-73
2022/10/03 08:02:40;;;;;;;5.50;3.22;;;12.20;99.90;;;;;;4993419;28;20353;-74
2022/10/03 08:05:36;;;;;;;7.43;3.88;;;12.20;99.90;;;;;;4993464;28;20030;-74
2022/10/03 08:08:30;;;;;;;7.28;4.30;;;12.20;99.90;;;;;;4975757;28;20026;-74
2022/10/03 08:11:29;;;;;;;6.85;4.68;;;12.20;99.90;;;;;;4993980;28;20022;-74
2022/10/03 08:14:06;;;;;;;9.20;4.45;;;12.20;99.90;;;;;;4992753;28;20089;-74
2022/10/03 08:16:47;;;;;;;12.73;5.15;;;12.20;99.90;;;;;;4976457;28;20031;-74
2022/10/03 08:19:31;;;;;;;9.30;4.80;;;12.20;99.90;;;;;;4993008;28;20383;-74
2022/10/03 08:22:24;;;;;;;9.57;5.40;;;12.20;99.90;;;;;;4976309;28;20023;-74
2022/10/03 08:25:09;;;;;;;13.52;5.68;;;12.30;99.90;;;;;;4992645;28;20380;-74
2022/10/03 08:27:50;;;;;;;14.20;6.10;;;12.40;99.90;;;;;;4993639;28;20038;-74
2022/10/03 08:30:41;;;;;;;16.03;6.77;;;12.40;99.90;;;;;;4991933;28;20037;-74
2022/10/03 08:33:34;;;;;;;20.88;8.30;;;12.60;99.90;;;;;;4975425;28;20279;-74
2022/10/03 08:36:18;;;;;;;20.67;8.57;;;12.80;99.90;;;;;;4993287;28;20027;-78
2022/10/03 08:39:12;;;;;;;19.05;8.13;;;13.00;99.90;;;;;;4976254;28;20038;-74
2022/10/03 08:42:03;;;;;;;19.67;9.27;;;13.20;99.90;;;;;;4993640;28;20022;-74
2022/10/03 08:45:03;;;;;;;21.17;10.02;;;13.30;99.90;;;;;;4993675;28;20022;-74
2022/10/03 08:47:52;;;;;;;26.55;10.35;;;13.40;99.90;;;;;;4968985;28;20087;-74
2022/10/03 08:51:00;;;;;;;23.38;10.07;;;13.40;99.90;;;;;;4992615;28;20051;-74
2022/10/03 08:54:01;;;;;;;25.98;9.57;;;13.50;99.90;;;;;;4975252;28;20031;-74
2022/10/03 08:56:45;;;;;;;20.17;9.55;;;13.50;99.90;;;;;;4992237;28;20073;-74
2022/10/03 08:59:47;;;;;;;20.77;9.35;;;13.60;99.90;;;;;;4991598;28;20034;-74
2022/10/03 09:02:37;;;;;;;19.90;10.05;;;13.70;99.90;;;;;;4991405;28;20040;-74
2022/10/03 09:05:18;;;;;;;24.80;9.18;;;13.80;99.90;;;;;;4992394;28;20058;-75
2022/10/03 09:07:55;;;;;;;21.13;8.77;;;13.70;99.90;;;;;;4993153;28;20038;-73
2022/10/03 09:10:35;;;;;;;23.65;8.80;;;13.80;99.90;;;;;;4974863;28;20034;-74
2022/10/03 09:13:36;;;;;;;19.23;8.68;;;13.90;99.90;;;;;;4993158;28;20023;-74
2022/10/03 09:16:47;;;;;;;19.20;7.75;;;14.00;99.90;;;;;;4997628;28;20034;-73
2022/10/03 09:20:08;;;;;;;16.50;7.07;;;14.00;99.90;;;;;;4995534;28;20035;-74
2022/10/03 09:22:55;;;;;;;16.65;7.18;;;14.10;99.90;;;;;;4936945;29;20046;-74
2022/10/03 09:25:23;;;;;;;14.07;7.45;;;14.20;99.90;;;;;;4991472;28;20535;-74
2022/10/03 09:28:13;;;;;;;15.43;8.18;;;14.10;99.90;;;;;;4979495;28;20033;-75
2022/10/03 09:31:03;;;;;;;16.33;8.00;;;14.10;99.90;;;;;;4995771;28;20380;-75
2022/10/03 09:33:59;;;;;;;16.58;7.82;;;14.00;99.90;;;;;;4996657;28;20388;-74
2022/10/03 09:36:50;;;;;;;16.30;7.18;;;14.00;99.90;;;;;;4996167;28;20030;-74
2022/10/03 09:40:13;;;;;;;18.92;7.53;;;14.00;99.90;;;;;;4978885;28;20530;-74
2022/10/03 09:43:04;;;;;;;14.25;6.88;;;14.10;99.90;;;;;;4936529;29;20374;-74
2022/10/03 09:46:02;;;;;;;14.45;6.50;;;14.00;99.90;;;;;;4936029;29;20482;-74
2022/10/03 09:48:39;;;;;;;15.48;6.63;;;13.90;99.90;;;;;;4933012;29;20036;-73
2022/10/03 09:51:10;;;;;;;14.48;7.10;;;13.80;99.90;;;;;;4935945;29;20173;-78
2022/10/03 09:53:52;;;;;;;19.52;8.25;;;13.80;99.90;;;;;;4920455;29;20040;-74
2022/10/03 09:56:23;;;;;;;17.13;7.50;;;13.90;99.90;;;;;;4935727;29;20072;-74
2022/10/03 09:59:06;;;;;;;17.73;8.10;;;14.10;99.90;;;;;;4936208;29;20028;-74
2022/10/03 10:01:46;;;;;;;18.80;9.00;;;14.30;99.90;;;;;;4935943;29;20047;-74
2022/10/03 10:04:12;;;;;;;21.25;9.50;;;14.50;99.90;;;;;;4935442;29;20036;-74
2022/10/03 10:07:02;;;;;;;16.38;7.63;;;14.60;99.90;;;;;;4935776;29;20040;-75
2022/10/03 10:09:36;;;;;;;20.23;7.10;;;14.50;99.90;;;;;;4935224;29;20031;-74
2022/10/03 10:12:40;;;;;;;11.80;6.68;;;14.50;99.90;;;;;;4936209;29;20110;-74
2022/10/03 10:15:05;;;;;;;18.45;7.28;;;14.40;99.90;;;;;;4994755;28;20026;-74
2022/10/03 10:18:04;;;;;;;14.77;6.53;;;14.50;99.90;;;;;;4978540;28;20033;-74
2022/10/03 10:20:49;;;;;;;15.23;6.57;;;14.40;99.90;;;;;;4995614;28;20061;-75
2022/10/03 10:24:02;;;;;;;14.07;6.28;;;14.40;99.90;;;;;;4995520;28;20483;-74
2022/10/03 10:26:42;;;;;;;17.27;6.50;;;14.30;99.90;;;;;;4978297;28;20038;-74
2022/10/03 10:29:43;;;;;;;12.45;4.95;;;14.30;99.90;;;;;;4977958;28;20054;-75
2022/10/03 10:32:39;;;;;;;9.70;4.90;;;14.30;99.90;;;;;;4994283;28;20041;-75
2022/10/03 10:35:20;;;;;;;9.88;4.82;;;14.20;99.90;;;;;;4995785;28;20165;-74
2022/10/03 10:37:46;;;;;;;13.48;4.90;;;14.20;99.90;;;;;;4995543;28;20046;-74
2022/10/03 10:40:56;;;;;;;12.45;4.57;;;14.20;99.90;;;;;;4977696;28;20471;-75
2022/10/03 10:43:45;;;;;;;12.45;4.97;;;14.20;99.90;;;;;;4993855;28;20391;-75
2022/10/03 10:46:49;;;;;;;12.50;4.40;;;14.20;99.90;;;;;;4993724;28;20121;-75
2022/10/03 10:49:35;;;;;;;12.75;4.57;;;14.10;99.90;;;;;;4993676;28;20057;-75
2022/10/03 10:52:22;;;;;;;9.43;4.28;;;14.10;99.90;;;;;;4995592;28;20483;-74
2022/10/03 10:54:47;;;;;;;12.73;4.53;;;14.00;99.90;;;;;;4995481;28;20019;-74
2022/10/03 10:57:21;;;;;;;12.68;4.75;;;14.00;99.90;;;;;;4977476;28;20045;-74
2022/10/03 11:00:06;;;;;;;14.20;5.07;;;14.00;99.90;;;;;;4978045;28;20026;-74
2022/10/03 11:02:50;;;;;;;10.70;4.72;;;14.10;99.90;;;;;;4995062;28;20076;-74
2022/10/03 11:05:47;;;;;;;9.10;4.00;;;14.30;99.90;;;;;;4994634;28;20030;-75
2022/10/03 11:08:34;;;;;;;10.38;3.83;;;14.40;99.90;;;;;;4976943;28;20029;-75
2022/10/03 11:11:40;;;;;;;10.35;3.70;;;14.50;99.90;;;;;;4995142;28;20109;-74
2022/10/03 11:14:43;;;;;;;10.77;3.83;;;14.40;99.90;;;;;;4995004;28;20109;-74
2022/10/03 11:17:30;;;;;;;8.70;3.67;;;14.40;99.90;;;;;;4994786;28;20030;-74
2022/10/03 11:20:18;;;;;;;8.25;3.30;;;14.50;99.90;;;;;;4994896;28;20026;-74
2022/10/03 11:23:02;;;;;;;9.75;3.28;;;14.60;99.90;;;;;;4977463;28;20045;-74
2022/10/03 11:25:49;;;;;;;7.53;3.10;;;14.60;99.90;;;;;;4993048;28;20396;-74
2022/10/03 11:28:37;;;;;;;8.57;3.53;;;14.60;99.90;;;;;;4976843;28;20062;-74
2022/10/03 11:31:03;;;;;;;9.88;3.40;;;14.80;99.90;;;;;;4983742;28;20050;-73
2022/10/03 11:33:38;;;;;;;8.05;3.33;;;15.00;99.90;;;;;;4976696;28;20033;-74
2022/10/03 11:36:29;;;;;;;8.80;2.85;;;15.10;99.90;;;;;;4977436;28;20092;-74
2022/10/03 11:39:06;;;;;;;6.18;2.90;;;15.30;99.90;;;;;;4992303;28;20026;-75
2022/10/03 11:41:56;;;;;;;8.65;3.08;;;15.60;99.90;;;;;;4992694;28;20034;-74
2022/10/03 11:44:22;;;;;;;7.55;2.80;;;15.80;99.90;;;;;;4992696;28;20058;-74
2022/10/03 11:46:58;;;;;;;5.22;3.00;;;15.70;99.90;;;;;;4976762;28;20498;-74
2022/10/03 11:49:52;;;;;;;8.45;3.58;;;15.70;99.90;;;;;;4973063;28;20050;-74
2022/10/03 11:52:28;;;;;;;9.25;3.25;;;15.60;99.90;;;;;;4974280;28;20034;-75
2022/10/03 11:55:23;;;;;;;8.73;2.83;;;15.60;99.90;;;;;;4973504;28;20031;-75
2022/10/03 11:58:33;;;;;;;7.97;2.97;;;15.50;99.90;;;;;;4974715;28;20031;-74
2022/10/03 12:01:24;;;;;;;10.32;3.15;;;15.40;99.90;;;;;;4974323;28;20050;-74
2022/10/03 12:04:08;;;;;;;7.93;3.10;;;15.50;99.90;;;;;;4974388;28;20400;-74
2022/10/03 12:09:39;;;;;;;10.57;3.10;;;15.60;99.90;;;;;;4973658;28;20042;-74
2022/10/03 12:12:20;;;;;;;6.20;2.90;;;15.70;99.90;;;;;;4974277;28;20061;-74
2022/10/03 12:14:50;;;;;;;7.53;2.58;;;15.70;99.90;;;;;;4974428;28;20069;-74
2022/10/03 12:17:35;;;;;;;7.65;2.63;;;15.70;99.90;;;;;;4988700;28;20042;-74
2022/10/03 12:20:25;;;;;;;9.38;2.72;;;15.70;99.90;;;;;;4989348;28;20106;-74
2022/10/03 12:23:05;;;;;;;8.18;2.58;;;15.80;99.90;;;;;;4974395;28;20027;-74
2022/10/03 12:25:35;;;;;;;9.07;2.60;;;15.70;99.90;;;;;;4988688;28;20054;-74
2022/10/03 12:28:23;;;;;;;7.55;2.75;;;15.50;99.90;;;;;;4972908;28;20027;-74
2022/10/03 12:31:06;;;;;;;10.93;3.28;;;15.50;99.90;;;;;;4973657;28;20491;-74
2022/10/03 12:33:43;;;;;;;7.15;2.70;;;16.00;99.90;;;;;;4972284;28;20034;-74
2022/10/03 12:36:28;;;;;;;7.03;2.97;;;16.40;99.90;;;;;;4972731;28;20391;-74
2022/10/03 12:39:13;;;;;;;7.07;2.83;;;16.90;99.90;;;;;;4974041;28;20035;-74
2022/10/03 12:42:19;;;;;;;6.63;2.47;;;17.40;99.90;;;;;;4971992;28;20058;-73
2022/10/03 12:44:54;;;;;;;11.75;3.50;;;17.90;99.90;;;;;;4960798;28;20043;-74
2022/10/03 12:47:44;;;;;;;10.23;2.45;;;18.20;99.90;;;;;;4988313;28;20377;-74
2022/10/03 12:50:32;;;;;;;8.32;2.65;;;19.00;99.90;;;;;;4988369;28;20141;-74
2022/10/03 12:53:18;;;;;;;8.55;2.60;;;19.60;99.90;;;;;;4988805;28;20031;-74
2022/10/03 12:56:10;;;;;;;7.10;2.42;;;20.30;99.90;;;;;;4973434;28;20038;-75
2022/10/03 12:59:13;;;;;;;7.65;2.42;;;20.80;99.90;;;;;;4988224;28;20338;-75
2022/10/03 13:01:51;;;;;;;4.28;2.05;;;21.00;99.90;;;;;;4973026;28;20031;-74
2022/10/03 13:04:34;;;;;;;5.18;2.45;;;21.20;99.20;;;;;;4972036;28;20202;-77
2022/10/03 13:07:38;;;;;;;3.45;1.50;;;21.00;99.70;;;;;;4972268;28;20039;-75
2022/10/03 13:10:15;;;;;;;4.75;1.50;;;20.80;96.70;;;;;;4913939;29;20067;-74
2022/10/03 13:12:54;;;;;;;2.55;1.45;;;21.40;93.70;;;;;;4979202;28;20092;-75
2022/10/03 13:15:42;;;;;;;2.78;1.35;;;22.00;91.40;;;;;;4987986;28;20369;-75
2022/10/03 13:18:25;;;;;;;2.72;1.42;;;22.10;91.70;;;;;;4988647;28;20102;-75
2022/10/03 13:21:10;;;;;;;4.80;1.73;;;21.60;89.90;;;;;;4973336;28;20061;-74
2022/10/03 13:23:41;;;;;;;4.60;1.70;;;21.00;91.60;;;;;;4987954;28;20489;-75
2022/10/03 13:26:37;;;;;;;6.07;1.83;;;20.60;95.00;;;;;;4972224;28;20481;-75
2022/10/03 13:29:18;;;;;;;5.05;1.52;;;20.20;95.50;;;;;;4973604;28;20106;-74
2022/10/03 13:32:08;;;;;;;6.05;1.38;;;19.90;95.30;;;;;;4973253;28;20034;-75
2022/10/03 13:34:57;;;;;;;2.10;1.10;;;19.70;93.70;;;;;;4972564;28;20041;-75
2022/10/03 13:37:50;;;;;;;4.28;1.23;;;19.50;92.80;;;;;;4987999;28;20026;-75
2022/10/03 13:40:18;;;;;;;3.38;0.80;;;19.20;91.80;;;;;;4972315;28;20035;-74
2022/10/03 13:42:52;;;;;;;2.53;0.93;;;19.10;93.30;;;;;;4971984;28;20027;-74
2022/10/03 13:45:24;;;;;;;3.42;1.10;;;18.90;92.60;;;;;;4973299;28;20078;-74
2022/10/03 13:47:54;;;;;;;6.10;1.27;;;18.80;93.60;;;;;;4972207;28;20027;-74
2022/10/03 13:50:31;;;;;;;4.90;1.40;;;18.60;93.50;;;;;;4987333;28;20105;-76
2022/10/03 13:53:04;;;;;;;4.13;1.55;;;18.50;95.90;;;;;;4988066;28;20065;-75
2022/10/03 13:55:55;;;;;;;4.88;1.65;;;18.50;95.60;;;;;;4987374;28;20031;-74
2022/10/03 13:58:58;;;;;;;2.67;1.27;;;18.20;95.80;;;;;;4972460;28;20030;-76
2022/10/03 14:01:40;;;;;;;5.20;1.27;;;17.90;98.20;;;;;;4973657;28;20369;-74
2022/10/03 14:04:42;;;;;;;7.28;1.30;;;18.00;98.40;;;;;;4975619;28;20030;-74
2022/10/03 14:07:35;;;;;;;7.97;1.60;;;17.90;97.40;;;;;;4976463;28;20122;-74
2022/10/03 14:10:28;;;;;;;2.80;1.30;;;17.80;97.00;;;;;;4991697;28;20083;-74
2022/10/03 14:13:01;;;;;;;4.97;1.23;;;17.70;96.10;;;;;;4991762;28;20027;-74
2022/10/03 14:15:46;;;;;;;6.63;1.23;;;17.70;95.80;;;;;;4991098;28;20443;-74
2022/10/03 14:18:15;;;;;;;2.03;1.10;;;17.60;95.30;;;;;;4975246;28;20059;-73
2022/10/03 14:21:19;;;;;;;2.63;0.90;;;17.50;95.70;;;;;;4974668;28;20074;-74
2022/10/03 14:24:08;;;;;;;6.47;1.50;;;17.40;95.30;;;;;;4990942;28;20531;-74
2022/10/03 14:26:51;;;;;;;3.15;1.10;;;17.40;96.00;;;;;;4975858;28;20041;-74
2022/10/03 14:29:22;;;;;;;6.07;1.40;;;17.40;96.10;;;;;;4991363;28;20085;-73
2022/10/03 14:31:55;;;;;;;4.20;1.35;;;17.30;97.00;;;;;;4976422;28;20038;-74
2022/10/03 14:34:42;;;;;;;4.00;1.63;;;17.30;96.30;;;;;;4975120;28;20042;-74
2022/10/03 14:37:17;;;;;;;2.58;1.60;;;17.20;98.50;;;;;;4991146;28;20038;-74
2022/10/03 14:40:06;;;;;;;1.85;1.38;;;17.20;99.10;;;;;;4974140;28;20050;-74